Time;durP1;ratioP1;P1;durP2;ratioP2;P2;SDS_P1;SDS_P2;PMS_P1;PMS_P2;Temp;Humidity;BMP_temperature;BMP_pressure;BME280_temperature;BME280_humidity;BME280_pressure;Samples;Min_cycle;Max_cycle;Signal;HPM_P1;HPM_P2
2022/08/28 00:00:18;;;;;;;3.83;3.47;;;;;;;;;;5049518;28;20033;-47
2022/08/28 00:02:45;;;;;;;3.30;3.00;;;;;;;;;;5044786;28;20025;-48
2022/08/28 00:05:14;;;;;;;3.75;3.40;;;;;;;;;;5047446;28;20496;-47
2022/08/28 00:07:40;;;;;;;8.57;3.55;;;;;;;;;;5050382;28;20628;-47
2022/08/28 00:10:08;;;;;;;3.75;3.42;;;;;;;;;;5046259;28;20029;-48
2022/08/28 00:12:35;;;;;;;6.15;3.08;;;;;;;;;;5048863;28;20032;-46
2022/08/28 00:15:05;;;;;;;6.35;3.90;;;;;;;;;;5048323;28;20029;-49
2022/08/28 00:17:31;;;;;;;5.88;3.47;;;;;;;;;;5043841;28;20043;-47
2022/08/28 00:19:57;;;;;;;4.05;3.67;;;;;;;;;;5042438;28;20029;-47
2022/08/28 00:22:23;;;;;;;7.65;3.42;;;;;;;;;;5048540;28;20036;-48
2022/08/28 00:24:49;;;;;;;6.50;3.80;;;;;;;;;;5044796;28;20021;-45
2022/08/28 00:29:59;;;;;;;4.80;3.40;;;;;;;;;;5046603;28;20831;-49
2022/08/28 00:32:25;;;;;;;3.85;3.38;;;;;;;;;;5047293;28;20029;-47
2022/08/28 00:34:51;;;;;;;4.65;3.90;;;;;;;;;;5049251;28;20195;-45
2022/08/28 00:37:17;;;;;;;6.78;3.70;;;;;;;;;;5045189;28;20378;-48
2022/08/28 00:39:43;;;;;;;4.28;3.83;;;;;;;;;;5043980;28;20025;-50
2022/08/28 00:42:09;;;;;;;4.57;3.42;;;;;;;;;;5048511;28;20047;-49
2022/08/28 00:44:35;;;;;;;4.47;3.60;;;;;;;;;;5047728;28;20033;-46
2022/08/28 00:47:01;;;;;;;13.13;4.10;;;;;;;;;;5046995;28;20494;-50
2022/08/28 00:49:31;;;;;;;4.03;3.60;;;;;;;;;;5049654;28;20104;-49
2022/08/28 00:52:07;;;;;;;6.40;4.18;;;;;;;;;;5042962;28;20472;-49
2022/08/28 00:54:38;;;;;;;4.82;3.78;;;;;;;;;;5046823;28;20043;-45
2022/08/28 00:57:08;;;;;;;4.67;3.97;;;;;;;;;;5048083;28;20386;-46
2022/08/28 00:59:35;;;;;;;4.22;3.83;;;;;;;;;;5045622;28;20112;-46
2022/08/28 01:02:01;;;;;;;4.10;3.55;;;;;;;;;;5046207;28;20037;-51
2022/08/28 01:04:31;;;;;;;5.03;3.33;;;;;;;;;;5048646;28;20052;-48
2022/08/28 01:06:59;;;;;;;12.50;3.53;;;;;;;;;;5041260;28;20070;-49
2022/08/28 01:09:28;;;;;;;4.95;4.45;;;;;;;;;;5041915;28;20047;-50
2022/08/28 01:11:58;;;;;;;5.18;3.72;;;;;;;;;;5047843;28;20530;-46
2022/08/28 01:14:25;;;;;;;5.63;4.10;;;;;;;;;;5045168;28;20090;-50
2022/08/28 01:16:54;;;;;;;6.43;3.30;;;;;;;;;;5041509;28;20477;-48
2022/08/28 01:19:30;;;;;;;3.83;3.40;;;;;;;;;;5048163;28;20029;-47
2022/08/28 01:22:15;;;;;;;4.30;3.50;;;;;;;;;;5043683;28;20039;-46
2022/08/28 01:24:42;;;;;;;4.18;3.78;;;;;;;;;;5046435;28;20031;-46
2022/08/28 01:27:08;;;;;;;4.05;3.75;;;;;;;;;;5045594;28;20488;-47
2022/08/28 01:29:35;;;;;;;6.97;3.42;;;;;;;;;;5047478;28;20037;-49
2022/08/28 01:32:01;;;;;;;7.07;3.53;;;;;;;;;;5050536;28;20081;-46
2022/08/28 01:34:27;;;;;;;3.95;3.70;;;;;;;;;;5045730;28;20060;-48
2022/08/28 01:36:53;;;;;;;4.03;3.72;;;;;;;;;;5047299;28;20085;-48
2022/08/28 01:39:22;;;;;;;5.70;3.67;;;;;;;;;;5046535;28;20036;-46
2022/08/28 01:41:50;;;;;;;3.92;3.53;;;;;;;;;;5045972;28;20086;-48
2022/08/28 01:44:23;;;;;;;5.40;3.72;;;;;;;;;;5047950;28;20029;-45
2022/08/28 01:46:51;;;;;;;4.15;3.70;;;;;;;;;;5045688;28;20033;-46
2022/08/28 01:49:17;;;;;;;5.07;3.40;;;;;;;;;;5043505;28;20439;-47
2022/08/28 01:51:44;;;;;;;9.20;4.00;;;;;;;;;;5047410;28;20382;-46
2022/08/28 01:54:10;;;;;;;5.40;3.83;;;;;;;;;;5045423;28;20024;-47
2022/08/28 01:56:36;;;;;;;5.72;3.60;;;;;;;;;;5046092;28;20041;-45
2022/08/28 01:59:05;;;;;;;4.93;3.65;;;;;;;;;;5044101;28;20017;-45
2022/08/28 02:01:32;;;;;;;4.40;4.00;;;;;;;;;;5045952;28;20112;-51
2022/08/28 02:04:03;;;;;;;4.43;3.60;;;;;;;;;;5042461;28;20032;-47
2022/08/28 02:06:30;;;;;;;7.50;3.50;;;;;;;;;;5047093;28;20029;-47
2022/08/28 02:08:57;;;;;;;4.55;4.13;;;;;;;;;;5044990;28;20033;-46
2022/08/28 02:11:24;;;;;;;4.18;3.63;;;;;;;;;;5042895;28;20032;-50
2022/08/28 02:13:52;;;;;;;9.63;3.70;;;;;;;;;;5044328;28;20509;-47
2022/08/28 02:16:18;;;;;;;4.68;3.60;;;;;;;;;;5046411;28;20373;-50
2022/08/28 02:18:44;;;;;;;4.82;3.88;;;;;;;;;;5046435;28;20032;-46
2022/08/28 02:21:11;;;;;;;6.72;3.63;;;;;;;;;;5041581;28;20504;-46
2022/08/28 02:23:40;;;;;;;4.78;3.72;;;;;;;;;;5045656;28;20025;-53
2022/08/28 02:26:06;;;;;;;4.32;3.88;;;;;;;;;;5045072;28;20033;-45
2022/08/28 02:28:32;;;;;;;8.77;4.65;;;;;;;;;;5042915;28;20021;-48
2022/08/28 02:30:58;;;;;;;4.32;3.92;;;;;;;;;;5045064;28;20464;-47
2022/08/28 02:33:24;;;;;;;4.05;3.70;;;;;;;;;;5046218;28;20033;-50
2022/08/28 02:35:50;;;;;;;4.90;4.25;;;;;;;;;;5043889;28;20068;-45
2022/08/28 02:38:16;;;;;;;6.28;3.60;;;;;;;;;;5044572;28;20059;-49
2022/08/28 02:40:42;;;;;;;4.60;3.90;;;;;;;;;;5049593;28;20389;-46
2022/08/28 02:43:09;;;;;;;5.40;4.07;;;;;;;;;;5044059;28;20036;-49
2022/08/28 02:45:35;;;;;;;6.13;4.00;;;;;;;;;;5026324;28;20096;-49
2022/08/28 02:48:01;;;;;;;4.28;3.40;;;;;;;;;;5043783;28;20113;-51
2022/08/28 02:50:28;;;;;;;6.82;3.97;;;;;;;;;;5041180;28;20477;-47
2022/08/28 02:52:55;;;;;;;4.68;4.20;;;;;;;;;;5042658;28;20682;-47
2022/08/28 02:55:21;;;;;;;4.93;4.20;;;;;;;;;;5045150;28;20064;-51
2022/08/28 02:57:48;;;;;;;6.35;4.38;;;;;;;;;;5037363;28;20037;-49
2022/08/28 03:00:19;;;;;;;5.15;3.88;;;;;;;;;;5043463;28;20076;-51
2022/08/28 03:02:45;;;;;;;4.93;4.25;;;;;;;;;;5047646;28;20761;-51
2022/08/28 03:05:13;;;;;;;7.80;4.10;;;;;;;;;;5046166;28;20035;-48
2022/08/28 03:07:39;;;;;;;4.57;4.18;;;;;;;;;;5042058;28;20021;-45
2022/08/28 03:10:06;;;;;;;7.95;4.43;;;;;;;;;;5046708;28;20035;-46
2022/08/28 03:12:33;;;;;;;4.50;4.10;;;;;;;;;;5052715;28;20036;-47
2022/08/28 03:14:58;;;;;;;4.40;4.00;;;;;;;;;;5052651;28;20083;-44
2022/08/28 03:17:24;;;;;;;4.38;3.95;;;;;;;;;;5051139;28;20077;-48
2022/08/28 03:19:51;;;;;;;9.32;4.32;;;;;;;;;;5049575;28;20140;-45
2022/08/28 03:23:24;;;;;;;5.18;4.13;;;;;;;;;;5053244;28;20087;-46
2022/08/28 03:25:06;;;;;;;4.68;4.15;;;;;;;;;;5052858;28;20029;-51
2022/08/28 03:27:32;;;;;;;5.47;4.45;;;;;;;;;;5050880;28;20025;-48
2022/08/28 03:29:58;;;;;;;4.80;4.18;;;;;;;;;;5046208;28;20044;-46
2022/08/28 03:32:25;;;;;;;7.80;4.03;;;;;;;;;;5052473;28;20037;-50
2022/08/28 03:34:52;;;;;;;7.70;4.25;;;;;;;;;;5051460;28;20025;-48
2022/08/28 03:37:19;;;;;;;7.72;4.30;;;;;;;;;;5050731;28;20059;-46
2022/08/28 03:39:44;;;;;;;9.18;4.65;;;;;;;;;;5052099;28;20127;-50
2022/08/28 03:42:11;;;;;;;8.73;4.10;;;;;;;;;;5051474;28;20100;-46
2022/08/28 03:44:38;;;;;;;6.95;4.10;;;;;;;;;;5052709;28;20786;-50
2022/08/28 03:47:04;;;;;;;7.60;3.97;;;;;;;;;;5035450;28;20025;-51
2022/08/28 03:49:30;;;;;;;8.57;4.35;;;;;;;;;;5048356;28;20491;-49
2022/08/28 03:51:56;;;;;;;4.90;4.35;;;;;;;;;;5051534;28;20042;-46
2022/08/28 03:54:23;;;;;;;8.73;4.13;;;;;;;;;;5051209;28;20033;-46
2022/08/28 03:56:50;;;;;;;7.03;4.22;;;;;;;;;;5048702;28;20041;-46
2022/08/28 03:59:17;;;;;;;4.78;4.10;;;;;;;;;;5052545;28;20492;-47
2022/08/28 04:01:43;;;;;;;9.00;4.40;;;;;;;;;;5050274;28;20100;-46
2022/08/28 04:04:08;;;;;;;6.22;3.78;;;;;;;;;;5048678;28;20113;-49
2022/08/28 04:06:34;;;;;;;7.07;4.10;;;;;;;;;;5048531;28;20033;-51
2022/08/28 04:09:01;;;;;;;5.03;4.28;;;;;;;;;;5048687;28;20473;-46
2022/08/28 04:11:27;;;;;;;4.28;3.97;;;;;;;;;;5052062;28;20048;-47
2022/08/28 04:13:53;;;;;;;6.70;4.05;;;;;;;;;;5048676;28;20029;-51
2022/08/28 04:16:19;;;;;;;5.57;3.92;;;;;;;;;;5051662;28;20059;-48
2022/08/28 04:18:47;;;;;;;4.35;4.05;;;;;;;;;;5051307;28;20028;-49
2022/08/28 04:21:23;;;;;;;5.20;4.22;;;;;;;;;;5048071;28;20021;-50
2022/08/28 04:23:49;;;;;;;5.53;3.83;;;;;;;;;;5046267;28;20125;-51
2022/08/28 04:26:17;;;;;;;6.47;4.57;;;;;;;;;;5048419;28;20488;-51
2022/08/28 04:28:44;;;;;;;7.53;4.10;;;;;;;;;;5043520;28;20033;-45
2022/08/28 04:31:10;;;;;;;4.60;4.20;;;;;;;;;;5045442;28;20034;-49
2022/08/28 04:33:37;;;;;;;6.70;3.92;;;;;;;;;;5046691;28;20114;-46
2022/08/28 04:36:06;;;;;;;4.50;4.10;;;;;;;;;;5048324;28;20055;-50
2022/08/28 04:38:32;;;;;;;4.18;3.78;;;;;;;;;;5046359;28;20026;-45
2022/08/28 04:40:58;;;;;;;4.40;4.00;;;;;;;;;;5048988;28;20039;-52
2022/08/28 04:43:24;;;;;;;4.13;3.80;;;;;;;;;;5045133;28;20367;-45
2022/08/28 04:45:50;;;;;;;4.10;3.70;;;;;;;;;;5047712;28;20025;-46
2022/08/28 04:48:15;;;;;;;4.43;3.88;;;;;;;;;;5048466;28;20036;-47
2022/08/28 04:50:44;;;;;;;4.40;4.00;;;;;;;;;;5044859;28;20036;-46
2022/08/28 04:53:10;;;;;;;9.32;4.10;;;;;;;;;;5046518;28;20812;-46
2022/08/28 04:55:45;;;;;;;4.07;3.78;;;;;;;;;;5048760;28;20060;-46
2022/08/28 04:58:11;;;;;;;6.47;4.00;;;;;;;;;;5046855;28;20129;-49
2022/08/28 05:00:39;;;;;;;4.30;3.90;;;;;;;;;;5044236;28;20025;-46
2022/08/28 05:03:04;;;;;;;4.82;4.43;;;;;;;;;;5047664;28;20486;-49
2022/08/28 05:05:30;;;;;;;4.55;3.80;;;;;;;;;;5047444;28;20017;-47
2022/08/28 05:07:56;;;;;;;4.10;3.80;;;;;;;;;;5044526;28;20029;-45
2022/08/28 05:10:24;;;;;;;6.47;4.20;;;;;;;;;;5048814;28;20090;-50
2022/08/28 05:12:50;;;;;;;6.68;4.05;;;;;;;;;;5045616;28;20128;-45
2022/08/28 05:15:16;;;;;;;6.97;3.97;;;;;;;;;;5048360;28;20029;-47
2022/08/28 05:17:42;;;;;;;5.03;3.97;;;;;;;;;;5046296;28;20024;-51
2022/08/28 05:20:09;;;;;;;4.65;4.05;;;;;;;;;;5050345;28;20025;-50
2022/08/28 05:22:34;;;;;;;6.72;4.22;;;;;;;;;;5042855;28;20033;-46
2022/08/28 05:25:00;;;;;;;4.70;4.22;;;;;;;;;;5045938;28;20059;-47
2022/08/28 05:27:28;;;;;;;3.95;3.65;;;;;;;;;;5044935;28;20029;-48
2022/08/28 05:29:53;;;;;;;6.22;4.22;;;;;;;;;;5043718;28;20036;-48
2022/08/28 05:32:20;;;;;;;7.05;4.13;;;;;;;;;;5046992;28;20029;-44
2022/08/28 05:34:46;;;;;;;4.22;3.88;;;;;;;;;;5044649;28;20448;-49
2022/08/28 05:37:12;;;;;;;8.40;4.00;;;;;;;;;;5048158;28;20040;-50
2022/08/28 05:39:37;;;;;;;6.50;3.85;;;;;;;;;;5045944;28;20370;-51
2022/08/28 05:42:04;;;;;;;7.38;4.00;;;;;;;;;;5045123;28;20025;-47
2022/08/28 05:44:30;;;;;;;5.07;3.95;;;;;;;;;;5042435;28;20039;-48
2022/08/28 05:46:56;;;;;;;4.25;3.88;;;;;;;;;;5041778;28;20033;-46
2022/08/28 05:49:21;;;;;;;7.00;3.75;;;;;;;;;;5045813;28;20033;-47
2022/08/28 05:51:48;;;;;;;5.57;3.90;;;;;;;;;;5046486;28;20044;-46
2022/08/28 05:54:14;;;;;;;4.35;3.70;;;;;;;;;;5048697;28;20358;-48
2022/08/28 05:56:42;;;;;;;6.93;4.05;;;;;;;;;;5045389;28;20037;-47
2022/08/28 05:59:09;;;;;;;4.22;3.83;;;;;;;;;;5044303;28;20029;-47
2022/08/28 06:01:44;;;;;;;5.03;3.75;;;;;;;;;;5042891;28;20056;-46
2022/08/28 06:04:13;;;;;;;5.80;3.58;;;;;;;;;;5043875;28;20031;-52
2022/08/28 06:06:40;;;;;;;5.45;4.75;;;;;;;;;;5042901;28;20029;-49
2022/08/28 06:09:10;;;;;;;4.22;3.80;;;;;;;;;;5043908;28;20063;-49
2022/08/28 06:11:37;;;;;;;4.40;3.67;;;;;;;;;;5044364;28;20025;-45
2022/08/28 06:14:08;;;;;;;4.32;3.85;;;;;;;;;;5044972;28;20075;-45
2022/08/28 06:16:36;;;;;;;4.10;3.65;;;;;;;;;;5044439;28;20063;-47
2022/08/28 06:19:02;;;;;;;5.22;3.72;;;;;;;;;;5043092;28;20123;-46
2022/08/28 06:21:28;;;;;;;6.13;3.72;;;;;;;;;;5043742;28;20109;-47
2022/08/28 06:23:54;;;;;;;4.05;3.63;;;;;;;;;;5046528;28;20059;-47
2022/08/28 06:26:20;;;;;;;8.20;4.15;;;;;;;;;;5044714;28;20028;-49
2022/08/28 06:28:46;;;;;;;4.47;4.00;;;;;;;;;;5044187;28;20496;-51
2022/08/28 06:31:12;;;;;;;9.27;4.10;;;;;;;;;;5046483;28;20351;-47
2022/08/28 06:33:39;;;;;;;6.68;3.78;;;;;;;;;;5041842;28;20373;-50
2022/08/28 06:36:04;;;;;;;7.90;3.60;;;;;;;;;;5044722;28;20543;-47
2022/08/28 06:38:31;;;;;;;4.88;3.38;;;;;;;;;;5047245;28;20429;-48
2022/08/28 06:40:57;;;;;;;6.30;3.95;;;;;;;;;;5041794;28;20547;-50
2022/08/28 06:43:26;;;;;;;4.57;4.18;;;;;;;;;;5045814;28;20496;-48
2022/08/28 06:45:54;;;;;;;5.35;4.03;;;;;;;;;;5045574;28;20059;-49
2022/08/28 06:48:23;;;;;;;5.50;3.88;;;;;;;;;;5044729;28;20064;-50
2022/08/28 06:50:51;;;;;;;5.40;3.78;;;;;;;;;;5041998;28;20482;-47
2022/08/28 06:53:20;;;;;;;7.78;3.67;;;;;;;;;;5044074;28;20389;-48
2022/08/28 06:56:00;;;;;;;4.22;3.90;;;;;;;;;;5044382;28;20045;-47
2022/08/28 06:58:28;;;;;;;4.85;3.70;;;;;;;;;;5043575;28;20036;-47
2022/08/28 07:01:01;;;;;;;5.15;4.00;;;;;;;;;;5043759;28;20083;-47
2022/08/28 07:03:28;;;;;;;3.83;3.53;;;;;;;;;;5049269;28;20033;-49
2022/08/28 07:05:56;;;;;;;5.18;3.90;;;;;;;;;;5044288;28;20021;-48
2022/08/28 07:08:26;;;;;;;5.57;4.10;;;;;;;;;;5035858;28;20039;-51
2022/08/28 07:10:53;;;;;;;7.50;3.80;;;;;;;;;;5043117;28;20075;-49
2022/08/28 07:13:20;;;;;;;11.25;4.03;;;;;;;;;;5046465;28;20021;-50
2022/08/28 07:15:46;;;;;;;3.90;3.47;;;;;;;;;;5032581;28;20375;-46
2022/08/28 07:18:12;;;;;;;4.82;3.70;;;;;;;;;;5037109;28;20064;-49
2022/08/28 07:20:38;;;;;;;4.15;3.70;;;;;;;;;;5041424;28;20585;-46
2022/08/28 07:23:04;;;;;;;4.68;3.67;;;;;;;;;;5036477;28;20040;-50
2022/08/28 07:25:30;;;;;;;4.35;3.95;;;;;;;;;;5037631;28;20508;-46
2022/08/28 07:27:56;;;;;;;5.55;3.70;;;;;;;;;;5040480;28;20057;-49
2022/08/28 07:30:22;;;;;;;6.72;3.70;;;;;;;;;;5036150;28;20108;-48
2022/08/28 07:32:48;;;;;;;4.00;3.60;;;;;;;;;;5041888;28;20120;-48
2022/08/28 07:35:16;;;;;;;3.60;3.30;;;;;;;;;;5041942;28;20033;-47
2022/08/28 07:37:42;;;;;;;6.43;3.80;;;;;;;;;;5037666;28;20112;-49
2022/08/28 07:40:09;;;;;;;6.43;3.63;;;;;;;;;;5041950;28;20035;-47
2022/08/28 07:45:20;;;;;;;5.20;4.13;;;;;;;;;;5038412;28;20464;-48
2022/08/28 07:47:46;;;;;;;4.72;3.60;;;;;;;;;;5054071;28;20544;-47
2022/08/28 07:50:12;;;;;;;3.67;3.38;;;;;;;;;;5046392;28;20029;-48
2022/08/28 07:52:38;;;;;;;5.85;3.67;;;;;;;;;;5043844;28;20103;-52
2022/08/28 07:55:05;;;;;;;5.00;3.63;;;;;;;;;;5039978;28;20616;-46
2022/08/28 07:57:31;;;;;;;9.70;3.55;;;;;;;;;;5035578;28;20040;-47
2022/08/28 07:59:58;;;;;;;5.30;3.60;;;;;;;;;;5043462;28;20114;-50
2022/08/28 08:02:24;;;;;;;3.65;3.30;;;;;;;;;;5044797;28;20037;-48
2022/08/28 08:04:50;;;;;;;4.43;2.97;;;;;;;;;;5048515;28;20048;-46
2022/08/28 08:07:16;;;;;;;4.53;3.40;;;;;;;;;;5046400;28;20123;-49
2022/08/28 08:09:45;;;;;;;5.43;3.92;;;;;;;;;;5046547;28;20677;-50
2022/08/28 08:12:13;;;;;;;3.72;3.20;;;;;;;;;;5044488;28;20065;-50
2022/08/28 08:14:40;;;;;;;4.70;3.22;;;;;;;;;;5043820;28;20041;-49
2022/08/28 08:17:08;;;;;;;6.68;3.47;;;;;;;;;;5045349;28;20029;-51
2022/08/28 08:19:35;;;;;;;5.20;3.17;;;;;;;;;;5050011;28;20029;-50
2022/08/28 08:22:01;;;;;;;5.85;3.10;;;;;;;;;;5047437;28;20444;-46
2022/08/28 08:24:29;;;;;;;5.45;3.45;;;;;;;;;;5045043;28;20037;-50
2022/08/28 08:26:59;;;;;;;3.80;3.42;;;;;;;;;;5046344;28;20036;-51
2022/08/28 08:29:26;;;;;;;5.07;3.10;;;;;;;;;;5045979;28;20481;-47
2022/08/28 08:32:10;;;;;;;4.38;3.97;;;;;;;;;;5029176;28;20104;-51
2022/08/28 08:34:48;;;;;;;8.95;4.60;;;;;;;;;;5046941;28;20025;-51
2022/08/28 08:37:14;;;;;;;9.88;4.78;;;;;;;;;;5042175;28;20032;-46
2022/08/28 08:39:41;;;;;;;7.05;5.03;;;;;;;;;;5047172;28;20029;-49
2022/08/28 08:42:24;;;;;;;5.00;4.50;;;;;;;;;;5043914;28;20079;-51
2022/08/28 08:44:52;;;;;;;6.10;4.78;;;;;;;;;;5061302;28;20485;-47
2022/08/28 08:47:21;;;;;;;8.23;4.70;;;;;;;;;;5046400;28;20550;-49
2022/08/28 08:50:04;;;;;;;6.18;4.55;;;;;;;;;;5050516;28;20036;-53
2022/08/28 08:53:07;;;;;;;6.32;4.10;;;;;;;;;;5045504;28;20020;-51
2022/08/28 08:55:53;;;;;;;7.50;4.22;;;;;;;;;;5045068;28;20577;-46
2022/08/28 08:58:39;;;;;;;8.75;4.47;;;;;;;;;;5046188;28;20099;-46
2022/08/28 09:01:19;;;;;;;7.38;4.18;;;;;;;;;;5046127;28;20025;-48
2022/08/28 09:03:55;;;;;;;4.20;3.90;;;;;;;;;;5049108;28;20040;-46
2022/08/28 09:06:41;;;;;;;4.35;4.05;;;;;;;;;;5046739;28;20095;-53
2022/08/28 09:09:17;;;;;;;4.68;4.22;;;;;;;;;;5041928;28;20498;-51
2022/08/28 09:11:43;;;;;;;6.57;4.07;;;;;;;;;;5045336;28;20021;-50
2022/08/28 09:14:18;;;;;;;4.88;4.07;;;;;;;;;;5048126;28;20496;-47
2022/08/28 09:16:45;;;;;;;8.57;4.28;;;;;;;;;;5044694;28;20378;-50
2022/08/28 09:19:17;;;;;;;5.13;4.35;;;;;;;;;;5047757;28;20029;-53
2022/08/28 09:21:44;;;;;;;5.97;4.20;;;;;;;;;;5047109;28;20029;-52
2022/08/28 09:24:23;;;;;;;4.35;3.78;;;;;;;;;;5047748;28;20040;-48
2022/08/28 09:26:55;;;;;;;7.07;4.90;;;;;;;;;;5046502;28;20029;-53
2022/08/28 09:29:31;;;;;;;6.20;4.40;;;;;;;;;;5045167;28;20112;-51
2022/08/28 09:32:13;;;;;;;5.95;4.10;;;;;;;;;;5044191;28;20386;-54
2022/08/28 09:34:59;;;;;;;5.22;4.20;;;;;;;;;;5046230;28;20581;-52
2022/08/28 09:37:26;;;;;;;7.10;3.75;;;;;;;;;;5041007;28;20487;-48
2022/08/28 09:43:25;;;;;;;3.53;3.20;;;;;;;;;;5024489;28;20045;-48
2022/08/28 09:46:27;;;;;;;4.88;3.20;;;;;;;;;;5025040;28;20029;-47
2022/08/28 09:49:07;;;;;;;5.18;3.65;;;;;;;;;;5022007;28;20041;-52
2022/08/28 09:51:37;;;;;;;5.47;3.78;;;;;;;;;;5024205;28;20032;-52
2022/08/28 09:54:21;;;;;;;3.97;3.25;;;;;;;;;;5019805;28;20038;-48
2022/08/28 09:56:48;;;;;;;4.68;3.30;;;;;;;;;;5023556;28;20049;-51
2022/08/28 09:59:20;;;;;;;4.63;3.20;;;;;;;;;;5025081;28;20474;-50
2022/08/28 10:01:59;;;;;;;3.60;2.90;;;;;;;;;;5025244;28;20029;-50
2022/08/28 10:04:36;;;;;;;4.60;3.00;;;;;;;;;;5025450;28;20125;-49
2022/08/28 10:07:02;;;;;;;3.42;3.13;;;;;;;;;;5023556;28;20045;-50
2022/08/28 10:09:34;;;;;;;2.92;2.70;;;;;;;;;;5023769;28;20540;-51
2022/08/28 10:12:22;;;;;;;3.47;2.85;;;;;;;;;;5024936;28;20639;-51
2022/08/28 10:15:14;;;;;;;7.40;3.08;;;;;;;;;;5022170;28;20029;-48
2022/08/28 10:17:49;;;;;;;;;;;;;;;;;;5024143;28;20043;-48
2022/08/28 10:20:30;;;;;;;3.40;2.88;;;;;;;;;;5044425;28;19963;-50
2022/08/28 10:23:23;;;;;;;4.32;3.45;;;;;;;;;;5044009;28;20087;-51
2022/08/28 10:26:15;;;;;;;3.20;2.85;;;;;;;;;;4932453;29;20054;-50
2022/08/28 10:28:43;;;;;;;3.80;3.45;;;;;;;;;;4937791;29;20067;-49
2022/08/28 10:31:38;;;;;;;6.50;3.30;;;;;;;;;;4930754;29;20476;-51
2022/08/28 10:34:07;;;;;;;5.28;3.25;;;;;;;;;;4931320;29;20694;-50
2022/08/28 10:36:34;;;;;;;2.63;2.40;;;;;;;;;;4929509;29;20619;-47
2022/08/28 10:39:21;;;;;;;3.08;2.80;;;;;;;;;;4933930;29;20050;-48
2022/08/28 10:41:53;;;;;;;3.30;3.00;;;;;;;;;;4936592;29;20103;-52
2022/08/28 10:44:30;;;;;;;3.72;3.15;;;;;;;;;;4937667;29;20217;-48
2022/08/28 10:46:57;;;;;;;3.35;3.03;;;;;;;;;;4938374;29;20099;-54
2022/08/28 10:49:30;;;;;;;5.78;3.05;;;;;;;;;;4935950;29;20086;-47
2022/08/28 10:52:09;;;;;;;2.90;2.70;;;;;;;;;;4929547;29;20032;-51
2022/08/28 10:54:39;;;;;;;3.05;2.70;;;;;;;;;;4936336;29;20035;-50
2022/08/28 10:57:38;;;;;;;4.82;3.05;;;;;;;;;;4935966;29;20059;-49
2022/08/28 11:00:19;;;;;;;4.50;2.70;;;;;;;;;;4935796;29;20163;-50
2022/08/28 11:02:53;;;;;;;4.05;3.15;;;;;;;;;;4995416;28;20120;-48
2022/08/28 11:05:22;;;;;;;3.28;2.97;;;;;;;;;;5044956;28;20035;-48
2022/08/28 11:07:51;;;;;;;4.45;2.50;;;;;;;;;;5040973;28;20033;-51
2022/08/28 11:10:43;;;;;;;2.53;2.25;;;;;;;;;;5041468;28;20040;-48
2022/08/28 11:13:09;;;;;;;6.07;2.72;;;;;;;;;;5045494;28;20094;-47
2022/08/28 11:15:35;;;;;;;3.47;2.80;;;;;;;;;;5045108;28;20526;-51
2022/08/28 11:18:12;;;;;;;3.75;2.90;;;;;;;;;;5044536;28;20398;-47
2022/08/28 11:20:42;;;;;;;3.70;2.80;;;;;;;;;;5037517;28;20033;-48
2022/08/28 11:23:14;;;;;;;2.60;2.40;;;;;;;;;;5044911;28;20028;-48
2022/08/28 11:25:44;;;;;;;2.85;2.63;;;;;;;;;;5045002;28;20033;-48
2022/08/28 11:28:39;;;;;;;3.05;2.35;;;;;;;;;;5045529;28;20021;-48
2022/08/28 11:31:04;;;;;;;4.70;2.60;;;;;;;;;;5046241;28;20036;-48
2022/08/28 11:33:42;;;;;;;3.10;2.90;;;;;;;;;;5046623;28;20029;-49
2022/08/28 11:36:31;;;;;;;6.40;2.75;;;;;;;;;;5044923;28;20040;-50
2022/08/28 11:39:17;;;;;;;3.97;2.90;;;;;;;;;;4985332;28;20129;-49
2022/08/28 11:42:10;;;;;;;2.83;2.63;;;;;;;;;;4985138;28;20050;-49
2022/08/28 11:44:43;;;;;;;3.17;2.97;;;;;;;;;;4983146;28;20047;-50
2022/08/28 11:47:44;;;;;;;5.18;2.60;;;;;;;;;;4988452;28;20049;-49
2022/08/28 11:50:13;;;;;;;2.58;2.40;;;;;;;;;;4940137;29;20511;-49
2022/08/28 11:52:51;;;;;;;2.38;2.17;;;;;;;;;;4938760;29;20059;-48
2022/08/28 11:55:28;;;;;;;5.80;2.42;;;;;;;;;;4940185;29;20098;-50
2022/08/28 11:57:56;;;;;;;7.15;2.22;;;;;;;;;;4938534;29;20046;-47
2022/08/28 12:00:36;;;;;;;2.97;2.13;;;;;;;;;;4938369;29;20036;-47
2022/08/28 12:03:05;;;;;;;2.92;2.00;;;;;;;;;;4933894;28;20036;-50
2022/08/28 12:05:30;;;;;;;2.00;1.90;;;;;;;;;;4940816;29;20126;-46
2022/08/28 12:08:01;;;;;;;4.78;1.90;;;;;;;;;;4937713;29;20123;-48
2022/08/28 12:10:26;;;;;;;1.92;1.83;;;;;;;;;;4933611;29;20078;-47
2022/08/28 12:12:59;;;;;;;5.15;2.55;;;;;;;;;;4939681;29;20066;-51
2022/08/28 12:15:28;;;;;;;3.65;2.28;;;;;;;;;;4952907;28;20039;-53
2022/08/28 12:18:00;;;;;;;2.83;2.63;;;;;;;;;;4979407;28;20113;-48
2022/08/28 12:20:52;;;;;;;3.40;2.85;;;;;;;;;;4978539;28;20157;-51
2022/08/28 12:23:30;;;;;;;5.60;3.00;;;;;;;;;;4976124;28;20049;-49
2022/08/28 12:26:15;;;;;;;3.47;2.58;;;;;;;;;;5016984;28;20048;-48
2022/08/28 12:28:58;;;;;;;3.10;2.90;;;;;;;;;;5048878;28;20033;-47
2022/08/28 12:34:36;;;;;;;3.72;3.42;;;;;;;;;;5046388;28;20066;-48
2022/08/28 12:37:04;;;;;;;3.75;3.38;;;;;;;;;;5048041;28;20029;-50
2022/08/28 12:39:32;;;;;;;3.78;3.45;;;;;;;;;;5047984;28;20432;-46
2022/08/28 12:42:00;;;;;;;8.23;3.47;;;;;;;;;;5044201;28;20021;-47
2022/08/28 12:44:29;;;;;;;3.60;3.25;;;;;;;;;;5047316;28;20025;-49
2022/08/28 12:46:56;;;;;;;3.50;3.20;;;;;;;;;;5030407;28;20029;-51
2022/08/28 12:49:27;;;;;;;4.57;3.17;;;;;;;;;;5047261;28;20021;-49
2022/08/28 12:52:11;;;;;;;3.22;2.95;;;;;;;;;;5048181;28;20021;-46
2022/08/28 12:54:38;;;;;;;13.48;3.80;;;;;;;;;;5044681;28;20432;-46
2022/08/28 12:57:10;;;;;;;3.90;3.60;;;;;;;;;;5045516;28;20025;-46
2022/08/28 12:59:38;;;;;;;3.47;3.28;;;;;;;;;;5044591;28;20041;-49
2022/08/28 13:02:19;;;;;;;3.50;3.20;;;;;;;;;;5049284;28;20064;-48
2022/08/28 13:04:53;;;;;;;5.78;3.08;;;;;;;;;;5047617;28;20029;-49
2022/08/28 13:07:27;;;;;;;4.50;3.28;;;;;;;;;;5045618;28;20072;-46
2022/08/28 13:09:55;;;;;;;3.13;2.88;;;;;;;;;;5046071;28;20043;-47
2022/08/28 13:12:33;;;;;;;4.93;3.35;;;;;;;;;;5048208;28;20431;-48
2022/08/28 13:15:00;;;;;;;5.35;3.40;;;;;;;;;;5047458;28;20032;-48
2022/08/28 13:17:48;;;;;;;4.20;3.25;;;;;;;;;;5046807;28;20041;-48
2022/08/28 13:20:33;;;;;;;3.30;3.00;;;;;;;;;;5046868;28;20102;-48
2022/08/28 13:23:00;;;;;;;8.05;3.47;;;;;;;;;;5044024;28;20013;-50
2022/08/28 13:25:35;;;;;;;4.80;3.15;;;;;;;;;;5045616;28;20063;-46
2022/08/28 13:28:21;;;;;;;3.40;3.10;;;;;;;;;;5042982;28;20036;-48
2022/08/28 13:30:57;;;;;;;3.53;3.20;;;;;;;;;;5045475;28;20068;-46
2022/08/28 13:33:24;;;;;;;3.55;3.05;;;;;;;;;;5032472;28;20091;-48
2022/08/28 13:35:52;;;;;;;5.55;3.17;;;;;;;;;;5042654;28;20021;-47
2022/08/28 13:38:23;;;;;;;3.25;2.95;;;;;;;;;;5045635;28;20112;-49
2022/08/28 13:40:52;;;;;;;3.50;3.15;;;;;;;;;;5026045;28;20043;-51
2022/08/28 13:43:20;;;;;;;5.45;3.30;;;;;;;;;;5047314;28;20041;-47
2022/08/28 13:45:47;;;;;;;4.45;3.30;;;;;;;;;;5050145;28;20028;-46
2022/08/28 13:48:16;;;;;;;6.88;2.70;;;;;;;;;;5045086;28;20040;-47
2022/08/28 13:50:49;;;;;;;4.20;3.60;;;;;;;;;;5046348;28;20358;-47
2022/08/28 13:53:17;;;;;;;2.90;2.70;;;;;;;;;;5045903;28;20052;-48
2022/08/28 13:55:43;;;;;;;4.88;3.33;;;;;;;;;;5043113;28;20076;-48
2022/08/28 13:58:09;;;;;;;4.40;3.45;;;;;;;;;;5044786;28;20029;-48
2022/08/28 14:00:39;;;;;;;3.90;3.10;;;;;;;;;;5047666;28;20139;-48
2022/08/28 14:05:49;;;;;;;5.03;3.20;;;;;;;;;;5045483;28;20497;-54
2022/08/28 14:08:15;;;;;;;5.57;3.38;;;;;;;;;;5045640;28;20029;-48
2022/08/28 14:10:41;;;;;;;6.97;3.05;;;;;;;;;;5028774;28;20056;-48
2022/08/28 14:13:07;;;;;;;3.42;3.13;;;;;;;;;;5045642;28;20037;-48
2022/08/28 14:15:33;;;;;;;3.72;3.10;;;;;;;;;;5044348;28;20037;-48
2022/08/28 14:17:59;;;;;;;5.07;3.35;;;;;;;;;;5043904;28;20040;-46
2022/08/28 14:20:24;;;;;;;4.65;3.00;;;;;;;;;;5046289;28;20033;-48
2022/08/28 14:22:50;;;;;;;3.47;3.20;;;;;;;;;;5045973;28;20029;-48
2022/08/28 14:25:16;;;;;;;4.53;3.00;;;;;;;;;;5044990;28;20405;-46
2022/08/28 14:27:41;;;;;;;3.45;3.15;;;;;;;;;;5042854;28;20047;-49
2022/08/28 14:30:09;;;;;;;5.35;3.08;;;;;;;;;;5043983;28;20021;-48
2022/08/28 14:32:36;;;;;;;3.97;2.85;;;;;;;;;;5043980;28;20025;-52
2022/08/28 14:35:03;;;;;;;4.72;3.03;;;;;;;;;;5040894;28;20020;-51
2022/08/28 14:37:29;;;;;;;4.50;3.20;;;;;;;;;;5044019;28;20033;-48
2022/08/28 14:39:55;;;;;;;4.10;2.95;;;;;;;;;;5042651;28;20374;-49
2022/08/28 14:42:21;;;;;;;3.85;3.22;;;;;;;;;;5042526;28;20074;-47
2022/08/28 14:44:47;;;;;;;3.22;3.03;;;;;;;;;;5040220;28;20262;-49
2022/08/28 14:47:13;;;;;;;3.38;2.72;;;;;;;;;;5038354;28;20546;-48
2022/08/28 14:49:39;;;;;;;3.10;2.83;;;;;;;;;;5044498;28;20021;-50
2022/08/28 14:52:06;;;;;;;3.35;3.05;;;;;;;;;;5040241;28;20110;-46
2022/08/28 14:54:31;;;;;;;3.15;2.90;;;;;;;;;;5039807;28;20424;-51
2022/08/28 14:56:57;;;;;;;3.13;2.92;;;;;;;;;;5041720;28;20051;-48
2022/08/28 14:59:26;;;;;;;3.40;2.47;;;;;;;;;;5047215;28;20037;-46
2022/08/28 15:01:54;;;;;;;3.75;2.83;;;;;;;;;;5039017;28;20021;-53
2022/08/28 15:04:22;;;;;;;3.47;2.80;;;;;;;;;;5045650;28;20503;-48
2022/08/28 15:06:50;;;;;;;4.88;2.65;;;;;;;;;;5044125;28;20044;-48
2022/08/28 15:09:16;;;;;;;6.18;2.55;;;;;;;;;;5043260;28;20033;-49
2022/08/28 15:11:43;;;;;;;3.83;2.40;;;;;;;;;;5045412;28;20104;-52
2022/08/28 15:14:09;;;;;;;2.85;2.47;;;;;;;;;;5040383;28;20092;-48